sensor_id;sensor_type;location;lat;lon;timestamp;P1;durP1;ratioP1;P2;durP2;ratioP2
70467;SDS011;57934;51.532;7.684;2023-06-19T00:01:28;5.53;;;4.97;;
70467;SDS011;57934;51.532;7.684;2023-06-19T00:03:54;4.88;;;4.47;;
70467;SDS011;57934;51.532;7.684;2023-06-19T00:06:20;5.07;;;4.60;;
70467;SDS011;57934;51.532;7.684;2023-06-19T00:08:45;5.40;;;4.35;;
70467;SDS011;57934;51.532;7.684;2023-06-19T00:11:11;6.97;;;4.70;;
70467;SDS011;57934;51.532;7.684;2023-06-19T00:13:37;6.28;;;4.47;;
70467;SDS011;57934;51.532;7.684;2023-06-19T00:16:03;6.55;;;4.88;;
70467;SDS011;57934;51.532;7.684;2023-06-19T00:18:28;5.30;;;4.47;;
70467;SDS011;57934;51.532;7.684;2023-06-19T00:20:54;5.20;;;4.75;;
70467;SDS011;57934;51.532;7.684;2023-06-19T00:23:22;5.40;;;4.90;;
70467;SDS011;57934;51.532;7.684;2023-06-19T00:25:47;5.57;;;5.07;;
70467;SDS011;57934;51.532;7.684;2023-06-19T00:28:13;5.82;;;5.10;;
70467;SDS011;57934;51.532;7.684;2023-06-19T00:30:40;6.55;;;5.13;;
70467;SDS011;57934;51.532;7.684;2023-06-19T00:33:06;6.20;;;5.60;;
70467;SDS011;57934;51.532;7.684;2023-06-19T00:35:33;6.20;;;4.80;;
70467;SDS011;57934;51.532;7.684;2023-06-19T00:37:59;5.85;;;5.30;;
70467;SDS011;57934;51.532;7.684;2023-06-19T00:40:27;5.30;;;4.85;;
70467;SDS011;57934;51.532;7.684;2023-06-19T00:42:53;7.00;;;4.97;;
70467;SDS011;57934;51.532;7.684;2023-06-19T00:45:19;5.53;;;4.80;;
70467;SDS011;57934;51.532;7.684;2023-06-19T00:47:45;7.35;;;5.93;;
70467;SDS011;57934;51.532;7.684;2023-06-19T00:50:11;8.15;;;5.18;;
70467;SDS011;57934;51.532;7.684;2023-06-19T00:52:37;6.38;;;5.22;;
70467;SDS011;57934;51.532;7.684;2023-06-19T00:55:04;8.45;;;5.45;;
70467;SDS011;57934;51.532;7.684;2023-06-19T00:57:30;5.68;;;5.18;;
70467;SDS011;57934;51.532;7.684;2023-06-19T00:59:57;6.93;;;5.10;;
70467;SDS011;57934;51.532;7.684;2023-06-19T01:02:22;6.13;;;5.40;;
70467;SDS011;57934;51.532;7.684;2023-06-19T01:04:53;6.88;;;5.13;;
70467;SDS011;57934;51.532;7.684;2023-06-19T01:07:56;5.82;;;5.30;;
70467;SDS011;57934;51.532;7.684;2023-06-19T01:10:21;5.72;;;5.22;;
70467;SDS011;57934;51.532;7.684;2023-06-19T01:12:54;5.53;;;5.03;;
70467;SDS011;57934;51.532;7.684;2023-06-19T01:15:22;5.40;;;4.90;;
70467;SDS011;57934;51.532;7.684;2023-06-19T01:17:49;5.80;;;5.05;;
70467;SDS011;57934;51.532;7.684;2023-06-19T01:20:15;6.15;;;5.28;;
70467;SDS011;57934;51.532;7.684;2023-06-19T01:22:41;5.97;;;5.32;;
70467;SDS011;57934;51.532;7.684;2023-06-19T01:25:09;9.02;;;6.00;;
70467;SDS011;57934;51.532;7.684;2023-06-19T01:27:36;5.78;;;5.28;;
70467;SDS011;57934;51.532;7.684;2023-06-19T01:30:03;5.82;;;5.32;;
70467;SDS011;57934;51.532;7.684;2023-06-19T01:32:47;6.10;;;5.28;;
70467;SDS011;57934;51.532;7.684;2023-06-19T01:35:17;5.88;;;4.80;;
70467;SDS011;57934;51.532;7.684;2023-06-19T01:37:44;6.20;;;5.63;;
70467;SDS011;57934;51.532;7.684;2023-06-19T01:40:13;5.90;;;5.40;;
70467;SDS011;57934;51.532;7.684;2023-06-19T01:42:40;5.32;;;4.88;;
70467;SDS011;57934;51.532;7.684;2023-06-19T01:45:06;6.63;;;5.97;;
70467;SDS011;57934;51.532;7.684;2023-06-19T01:47:32;6.55;;;5.68;;
70467;SDS011;57934;51.532;7.684;2023-06-19T01:49:58;6.97;;;5.25;;
70467;SDS011;57934;51.532;7.684;2023-06-19T01:52:24;5.68;;;5.18;;
70467;SDS011;57934;51.532;7.684;2023-06-19T01:54:50;5.82;;;5.30;;
70467;SDS011;57934;51.532;7.684;2023-06-19T01:57:16;6.15;;;5.38;;
70467;SDS011;57934;51.532;7.684;2023-06-19T01:59:42;6.45;;;5.72;;
70467;SDS011;57934;51.532;7.684;2023-06-19T02:02:07;5.55;;;5.05;;
70467;SDS011;57934;51.532;7.684;2023-06-19T02:04:33;6.25;;;5.65;;
70467;SDS011;57934;51.532;7.684;2023-06-19T02:06:59;6.63;;;6.03;;
70467;SDS011;57934;51.532;7.684;2023-06-19T02:09:25;6.45;;;5.85;;
70467;SDS011;57934;51.532;7.684;2023-06-19T02:11:50;6.30;;;5.70;;
70467;SDS011;57934;51.532;7.684;2023-06-19T02:14:16;9.02;;;6.32;;
70467;SDS011;57934;51.532;7.684;2023-06-19T02:16:42;8.57;;;5.90;;
70467;SDS011;57934;51.532;7.684;2023-06-19T02:19:12;6.40;;;5.80;;
70467;SDS011;57934;51.532;7.684;2023-06-19T02:21:38;6.53;;;5.93;;
70467;SDS011;57934;51.532;7.684;2023-06-19T02:24:04;8.02;;;5.97;;
70467;SDS011;57934;51.532;7.684;2023-06-19T02:26:31;6.65;;;5.72;;
70467;SDS011;57934;51.532;7.684;2023-06-19T02:28:57;6.63;;;5.90;;
70467;SDS011;57934;51.532;7.684;2023-06-19T02:31:22;6.63;;;5.88;;
70467;SDS011;57934;51.532;7.684;2023-06-19T02:33:49;9.32;;;6.28;;
70467;SDS011;57934;51.532;7.684;2023-06-19T02:36:15;6.65;;;6.03;;
70467;SDS011;57934;51.532;7.684;2023-06-19T02:38:45;7.93;;;6.20;;
70467;SDS011;57934;51.532;7.684;2023-06-19T02:41:12;6.25;;;5.75;;
70467;SDS011;57934;51.532;7.684;2023-06-19T02:43:38;6.03;;;5.53;;
70467;SDS011;57934;51.532;7.684;2023-06-19T02:46:05;6.20;;;5.70;;
70467;SDS011;57934;51.532;7.684;2023-06-19T02:48:31;6.85;;;6.10;;
70467;SDS011;57934;51.532;7.684;2023-06-19T02:50:56;6.80;;;5.40;;
70467;SDS011;57934;51.532;7.684;2023-06-19T02:53:22;6.28;;;5.43;;
70467;SDS011;57934;51.532;7.684;2023-06-19T02:55:48;5.97;;;5.38;;
70467;SDS011;57934;51.532;7.684;2023-06-19T02:58:13;6.18;;;5.60;;
70467;SDS011;57934;51.532;7.684;2023-06-19T03:00:39;6.55;;;5.95;;
70467;SDS011;57934;51.532;7.684;2023-06-19T03:03:05;6.13;;;5.53;;
70467;SDS011;57934;51.532;7.684;2023-06-19T03:05:31;9.45;;;5.82;;
70467;SDS011;57934;51.532;7.684;2023-06-19T03:07:56;8.13;;;5.93;;
70467;SDS011;57934;51.532;7.684;2023-06-19T03:10:22;6.45;;;5.85;;
70467;SDS011;57934;51.532;7.684;2023-06-19T03:12:48;6.80;;;6.10;;
70467;SDS011;57934;51.532;7.684;2023-06-19T03:15:14;8.35;;;6.10;;
70467;SDS011;57934;51.532;7.684;2023-06-19T03:17:44;6.72;;;5.80;;
70467;SDS011;57934;51.532;7.684;2023-06-19T03:20:11;7.07;;;5.93;;
70467;SDS011;57934;51.532;7.684;2023-06-19T03:22:40;7.72;;;6.32;;
70467;SDS011;57934;51.532;7.684;2023-06-19T03:25:08;6.07;;;5.47;;
70467;SDS011;57934;51.532;7.684;2023-06-19T03:27:34;6.85;;;5.60;;
70467;SDS011;57934;51.532;7.684;2023-06-19T03:30:00;8.77;;;6.15;;
70467;SDS011;57934;51.532;7.684;2023-06-19T03:32:35;6.85;;;5.70;;
70467;SDS011;57934;51.532;7.684;2023-06-19T03:35:01;8.43;;;5.80;;
70467;SDS011;57934;51.532;7.684;2023-06-19T03:37:28;7.90;;;5.93;;
70467;SDS011;57934;51.532;7.684;2023-06-19T03:39:54;6.82;;;6.13;;
70467;SDS011;57934;51.532;7.684;2023-06-19T03:42:20;6.68;;;6.03;;
70467;SDS011;57934;51.532;7.684;2023-06-19T03:44:46;6.20;;;5.70;;
70467;SDS011;57934;51.532;7.684;2023-06-19T03:47:11;6.38;;;5.60;;
70467;SDS011;57934;51.532;7.684;2023-06-19T03:49:37;9.75;;;5.90;;
70467;SDS011;57934;51.532;7.684;2023-06-19T03:52:03;6.63;;;5.80;;
70467;SDS011;57934;51.532;7.684;2023-06-19T03:54:29;6.75;;;6.15;;
70467;SDS011;57934;51.532;7.684;2023-06-19T03:56:54;8.00;;;5.95;;
70467;SDS011;57934;51.532;7.684;2023-06-19T03:59:21;8.50;;;4.97;;
70467;SDS011;57934;51.532;7.684;2023-06-19T04:01:46;7.57;;;4.90;;
70467;SDS011;57934;51.532;7.684;2023-06-19T04:04:12;5.60;;;5.10;;
70467;SDS011;57934;51.532;7.684;2023-06-19T04:06:38;5.50;;;5.00;;
70467;SDS011;57934;51.532;7.684;2023-06-19T04:09:05;6.78;;;4.88;;
70467;SDS011;57934;51.532;7.684;2023-06-19T04:11:31;6.82;;;4.97;;
70467;SDS011;57934;51.532;7.684;2023-06-19T04:13:57;7.95;;;4.28;;
70467;SDS011;57934;51.532;7.684;2023-06-19T04:16:23;4.75;;;4.35;;
70467;SDS011;57934;51.532;7.684;2023-06-19T04:18:49;8.95;;;4.57;;
70467;SDS011;57934;51.532;7.684;2023-06-19T04:21:14;5.28;;;4.32;;
70467;SDS011;57934;51.532;7.684;2023-06-19T04:23:41;4.40;;;4.00;;
70467;SDS011;57934;51.532;7.684;2023-06-19T04:26:06;6.22;;;4.65;;
70467;SDS011;57934;51.532;7.684;2023-06-19T04:28:32;8.55;;;4.22;;
70467;SDS011;57934;51.532;7.684;2023-06-19T04:30:58;5.72;;;3.92;;
70467;SDS011;57934;51.532;7.684;2023-06-19T04:33:27;6.35;;;3.83;;
70467;SDS011;57934;51.532;7.684;2023-06-19T04:35:53;5.57;;;3.60;;
70467;SDS011;57934;51.532;7.684;2023-06-19T04:38:19;6.55;;;3.45;;
70467;SDS011;57934;51.532;7.684;2023-06-19T04:40:52;5.43;;;3.53;;
70467;SDS011;57934;51.532;7.684;2023-06-19T04:43:18;3.55;;;3.25;;
70467;SDS011;57934;51.532;7.684;2023-06-19T04:45:44;5.30;;;3.67;;
70467;SDS011;57934;51.532;7.684;2023-06-19T04:48:10;4.70;;;3.97;;
70467;SDS011;57934;51.532;7.684;2023-06-19T04:50:35;4.90;;;3.88;;
70467;SDS011;57934;51.532;7.684;2023-06-19T04:53:01;6.63;;;3.58;;
70467;SDS011;57934;51.532;7.684;2023-06-19T04:55:27;4.90;;;3.78;;
70467;SDS011;57934;51.532;7.684;2023-06-19T04:57:52;4.93;;;3.55;;
70467;SDS011;57934;51.532;7.684;2023-06-19T05:00:18;4.53;;;4.07;;
70467;SDS011;57934;51.532;7.684;2023-06-19T05:02:45;6.15;;;3.88;;
70467;SDS011;57934;51.532;7.684;2023-06-19T05:05:13;4.25;;;3.58;;
70467;SDS011;57934;51.532;7.684;2023-06-19T05:07:39;3.80;;;3.40;;
70467;SDS011;57934;51.532;7.684;2023-06-19T05:10:05;4.55;;;3.85;;
70467;SDS011;57934;51.532;7.684;2023-06-19T05:12:33;4.95;;;4.10;;
70467;SDS011;57934;51.532;7.684;2023-06-19T05:14:59;6.55;;;3.63;;
70467;SDS011;57934;51.532;7.684;2023-06-19T05:17:25;5.38;;;4.25;;
70467;SDS011;57934;51.532;7.684;2023-06-19T05:19:51;3.78;;;3.47;;
70467;SDS011;57934;51.532;7.684;2023-06-19T05:22:30;5.63;;;3.75;;
70467;SDS011;57934;51.532;7.684;2023-06-19T05:24:57;3.83;;;3.53;;
70467;SDS011;57934;51.532;7.684;2023-06-19T05:27:22;3.92;;;3.60;;
70467;SDS011;57934;51.532;7.684;2023-06-19T05:29:48;5.28;;;3.78;;
70467;SDS011;57934;51.532;7.684;2023-06-19T05:32:14;4.75;;;3.25;;
70467;SDS011;57934;51.532;7.684;2023-06-19T05:34:39;3.88;;;3.35;;
70467;SDS011;57934;51.532;7.684;2023-06-19T05:37:05;5.75;;;3.50;;
70467;SDS011;57934;51.532;7.684;2023-06-19T05:39:31;8.68;;;3.35;;
70467;SDS011;57934;51.532;7.684;2023-06-19T05:41:57;4.85;;;3.05;;
70467;SDS011;57934;51.532;7.684;2023-06-19T05:44:22;3.97;;;3.30;;
70467;SDS011;57934;51.532;7.684;2023-06-19T05:46:48;6.25;;;3.05;;
70467;SDS011;57934;51.532;7.684;2023-06-19T05:49:14;7.07;;;3.25;;
70467;SDS011;57934;51.532;7.684;2023-06-19T05:51:40;5.50;;;3.30;;
70467;SDS011;57934;51.532;7.684;2023-06-19T05:54:05;3.83;;;2.95;;
70467;SDS011;57934;51.532;7.684;2023-06-19T05:56:31;6.40;;;3.67;;
70467;SDS011;57934;51.532;7.684;2023-06-19T05:58:58;5.95;;;2.67;;
70467;SDS011;57934;51.532;7.684;2023-06-19T06:01:25;9.52;;;3.45;;
70467;SDS011;57934;51.532;7.684;2023-06-19T06:03:53;4.15;;;2.30;;
70467;SDS011;57934;51.532;7.684;2023-06-19T06:06:19;2.50;;;2.30;;
70467;SDS011;57934;51.532;7.684;2023-06-19T06:08:45;2.95;;;2.65;;
70467;SDS011;57934;51.532;7.684;2023-06-19T06:11:11;2.65;;;2.45;;
70467;SDS011;57934;51.532;7.684;2023-06-19T06:13:37;6.68;;;2.83;;
70467;SDS011;57934;51.532;7.684;2023-06-19T06:16:03;2.40;;;2.20;;
70467;SDS011;57934;51.532;7.684;2023-06-19T06:18:28;1.85;;;1.75;;
70467;SDS011;57934;51.532;7.684;2023-06-19T06:20:54;4.78;;;2.28;;
70467;SDS011;57934;51.532;7.684;2023-06-19T06:23:20;6.22;;;1.95;;
70467;SDS011;57934;51.532;7.684;2023-06-19T06:25:46;2.55;;;2.28;;
70467;SDS011;57934;51.532;7.684;2023-06-19T06:28:11;2.17;;;1.98;;
70467;SDS011;57934;51.532;7.684;2023-06-19T06:30:37;2.42;;;2.08;;
70467;SDS011;57934;51.532;7.684;2023-06-19T06:33:04;2.83;;;2.53;;
70467;SDS011;57934;51.532;7.684;2023-06-19T06:35:30;4.07;;;2.10;;
70467;SDS011;57934;51.532;7.684;2023-06-19T06:37:56;4.85;;;2.70;;
70467;SDS011;57934;51.532;7.684;2023-06-19T06:40:21;4.93;;;2.28;;
70467;SDS011;57934;51.532;7.684;2023-06-19T06:42:47;2.25;;;2.00;;
70467;SDS011;57934;51.532;7.684;2023-06-19T06:45:15;3.47;;;2.38;;
70467;SDS011;57934;51.532;7.684;2023-06-19T06:47:41;4.53;;;2.35;;
70467;SDS011;57934;51.532;7.684;2023-06-19T06:50:07;5.07;;;1.90;;
70467;SDS011;57934;51.532;7.684;2023-06-19T06:52:33;4.10;;;1.95;;
70467;SDS011;57934;51.532;7.684;2023-06-19T06:54:59;3.22;;;2.17;;
70467;SDS011;57934;51.532;7.684;2023-06-19T06:57:24;3.58;;;2.03;;
70467;SDS011;57934;51.532;7.684;2023-06-19T06:59:50;3.58;;;1.95;;
70467;SDS011;57934;51.532;7.684;2023-06-19T07:02:16;4.72;;;2.30;;
70467;SDS011;57934;51.532;7.684;2023-06-19T07:04:42;2.85;;;2.10;;
70467;SDS011;57934;51.532;7.684;2023-06-19T07:07:07;3.05;;;2.13;;
70467;SDS011;57934;51.532;7.684;2023-06-19T07:09:34;1.80;;;1.70;;
70467;SDS011;57934;51.532;7.684;2023-06-19T07:12:00;2.08;;;1.98;;
70467;SDS011;57934;51.532;7.684;2023-06-19T07:14:29;2.08;;;1.90;;
70467;SDS011;57934;51.532;7.684;2023-06-19T07:16:55;1.80;;;1.70;;
70467;SDS011;57934;51.532;7.684;2023-06-19T07:19:21;1.85;;;1.75;;
70467;SDS011;57934;51.532;7.684;2023-06-19T07:21:47;3.88;;;2.05;;
70467;SDS011;57934;51.532;7.684;2023-06-19T07:24:13;2.33;;;2.13;;
70467;SDS011;57934;51.532;7.684;2023-06-19T07:26:38;5.10;;;2.00;;
70467;SDS011;57934;51.532;7.684;2023-06-19T07:29:04;2.63;;;2.30;;
70467;SDS011;57934;51.532;7.684;2023-06-19T07:31:30;2.92;;;2.13;;
70467;SDS011;57934;51.532;7.684;2023-06-19T07:33:55;2.55;;;2.30;;
70467;SDS011;57934;51.532;7.684;2023-06-19T07:36:21;2.55;;;2.17;;
70467;SDS011;57934;51.532;7.684;2023-06-19T07:38:47;3.03;;;2.10;;
70467;SDS011;57934;51.532;7.684;2023-06-19T07:41:13;2.88;;;2.60;;
70467;SDS011;57934;51.532;7.684;2023-06-19T07:43:39;5.53;;;2.25;;
70467;SDS011;57934;51.532;7.684;2023-06-19T07:46:04;2.10;;;1.88;;
70467;SDS011;57934;51.532;7.684;2023-06-19T07:48:30;3.58;;;2.30;;
70467;SDS011;57934;51.532;7.684;2023-06-19T07:50:56;3.58;;;2.42;;
70467;SDS011;57934;51.532;7.684;2023-06-19T07:53:22;3.08;;;2.17;;
70467;SDS011;57934;51.532;7.684;2023-06-19T07:55:47;2.60;;;2.40;;
70467;SDS011;57934;51.532;7.684;2023-06-19T07:58:13;3.05;;;2.45;;
70467;SDS011;57934;51.532;7.684;2023-06-19T08:00:39;2.95;;;2.53;;
70467;SDS011;57934;51.532;7.684;2023-06-19T08:03:05;2.35;;;2.20;;
70467;SDS011;57934;51.532;7.684;2023-06-19T08:05:31;9.00;;;2.60;;
70467;SDS011;57934;51.532;7.684;2023-06-19T08:07:58;2.67;;;2.15;;
70467;SDS011;57934;51.532;7.684;2023-06-19T08:10:24;2.67;;;1.92;;
70467;SDS011;57934;51.532;7.684;2023-06-19T08:12:49;3.05;;;1.90;;
70467;SDS011;57934;51.532;7.684;2023-06-19T08:15:16;5.43;;;2.40;;
70467;SDS011;57934;51.532;7.684;2023-06-19T08:17:42;3.78;;;2.10;;
70467;SDS011;57934;51.532;7.684;2023-06-19T08:20:08;4.07;;;2.30;;
70467;SDS011;57934;51.532;7.684;2023-06-19T08:22:35;3.05;;;1.90;;
70467;SDS011;57934;51.532;7.684;2023-06-19T08:25:01;3.53;;;2.33;;
70467;SDS011;57934;51.532;7.684;2023-06-19T08:27:27;2.65;;;2.30;;
70467;SDS011;57934;51.532;7.684;2023-06-19T08:29:52;3.35;;;2.28;;
70467;SDS011;57934;51.532;7.684;2023-06-19T08:32:18;3.08;;;2.33;;
70467;SDS011;57934;51.532;7.684;2023-06-19T08:34:44;2.28;;;2.00;;
70467;SDS011;57934;51.532;7.684;2023-06-19T08:37:10;6.00;;;1.80;;
70467;SDS011;57934;51.532;7.684;2023-06-19T08:39:36;3.60;;;2.38;;
70467;SDS011;57934;51.532;7.684;2023-06-19T08:42:07;2.75;;;2.05;;
70467;SDS011;57934;51.532;7.684;2023-06-19T08:44:33;2.58;;;2.35;;
70467;SDS011;57934;51.532;7.684;2023-06-19T08:47:01;6.90;;;2.28;;
70467;SDS011;57934;51.532;7.684;2023-06-19T08:49:29;4.05;;;1.92;;
70467;SDS011;57934;51.532;7.684;2023-06-19T08:51:55;2.58;;;2.05;;
70467;SDS011;57934;51.532;7.684;2023-06-19T08:54:20;3.08;;;1.98;;
70467;SDS011;57934;51.532;7.684;2023-06-19T08:56:46;4.10;;;1.85;;
70467;SDS011;57934;51.532;7.684;2023-06-19T08:59:13;2.17;;;2.08;;
70467;SDS011;57934;51.532;7.684;2023-06-19T09:01:39;2.38;;;1.90;;
70467;SDS011;57934;51.532;7.684;2023-06-19T09:04:09;4.18;;;2.20;;
70467;SDS011;57934;51.532;7.684;2023-06-19T09:06:36;2.08;;;1.95;;
70467;SDS011;57934;51.532;7.684;2023-06-19T09:09:04;2.33;;;2.13;;
70467;SDS011;57934;51.532;7.684;2023-06-19T09:11:32;2.00;;;1.90;;
70467;SDS011;57934;51.532;7.684;2023-06-19T09:13:58;5.78;;;2.10;;
70467;SDS011;57934;51.532;7.684;2023-06-19T09:16:37;3.78;;;2.28;;
70467;SDS011;57934;51.532;7.684;2023-06-19T09:19:04;2.42;;;2.22;;
70467;SDS011;57934;51.532;7.684;2023-06-19T09:21:30;4.15;;;2.30;;
70467;SDS011;57934;51.532;7.684;2023-06-19T09:24:02;2.90;;;2.47;;
70467;SDS011;57934;51.532;7.684;2023-06-19T09:26:29;4.43;;;2.28;;
70467;SDS011;57934;51.532;7.684;2023-06-19T09:28:55;2.20;;;2.00;;
70467;SDS011;57934;51.532;7.684;2023-06-19T09:31:30;3.83;;;2.13;;
70467;SDS011;57934;51.532;7.684;2023-06-19T09:33:56;2.50;;;2.30;;
70467;SDS011;57934;51.532;7.684;2023-06-19T09:36:22;3.08;;;2.22;;
70467;SDS011;57934;51.532;7.684;2023-06-19T09:38:48;3.58;;;2.30;;
70467;SDS011;57934;51.532;7.684;2023-06-19T09:41:14;2.47;;;2.20;;
70467;SDS011;57934;51.532;7.684;2023-06-19T09:43:42;4.97;;;2.25;;
70467;SDS011;57934;51.532;7.684;2023-06-19T09:46:08;4.38;;;2.50;;
70467;SDS011;57934;51.532;7.684;2023-06-19T09:48:35;3.15;;;2.75;;
70467;SDS011;57934;51.532;7.684;2023-06-19T09:51:20;2.50;;;2.30;;
70467;SDS011;57934;51.532;7.684;2023-06-19T09:53:50;2.60;;;2.40;;
70467;SDS011;57934;51.532;7.684;2023-06-19T09:56:16;2.80;;;2.10;;
70467;SDS011;57934;51.532;7.684;2023-06-19T09:58:47;3.28;;;2.33;;
70467;SDS011;57934;51.532;7.684;2023-06-19T10:01:15;2.47;;;2.20;;
70467;SDS011;57934;51.532;7.684;2023-06-19T10:03:44;3.42;;;2.60;;
70467;SDS011;57934;51.532;7.684;2023-06-19T10:06:19;2.60;;;2.05;;
70467;SDS011;57934;51.532;7.684;2023-06-19T10:08:47;4.20;;;2.30;;
70467;SDS011;57934;51.532;7.684;2023-06-19T10:11:13;3.15;;;2.35;;
70467;SDS011;57934;51.532;7.684;2023-06-19T10:13:40;5.78;;;2.25;;
70467;SDS011;57934;51.532;7.684;2023-06-19T10:16:06;3.30;;;2.28;;
70467;SDS011;57934;51.532;7.684;2023-06-19T10:18:32;2.58;;;1.40;;
70467;SDS011;57934;51.532;7.684;2023-06-19T10:20:58;1.63;;;1.52;;
70467;SDS011;57934;51.532;7.684;2023-06-19T10:23:25;2.15;;;1.45;;
70467;SDS011;57934;51.532;7.684;2023-06-19T10:28:21;2.42;;;1.63;;
70467;SDS011;57934;51.532;7.684;2023-06-19T10:33:19;2.53;;;1.90;;
70467;SDS011;57934;51.532;7.684;2023-06-19T10:35:45;2.08;;;1.65;;
70467;SDS011;57934;51.532;7.684;2023-06-19T10:38:13;3.92;;;1.83;;
70467;SDS011;57934;51.532;7.684;2023-06-19T10:40:39;1.98;;;1.80;;
70467;SDS011;57934;51.532;7.684;2023-06-19T10:43:05;2.65;;;2.08;;
70467;SDS011;57934;51.532;7.684;2023-06-19T10:45:31;2.30;;;2.08;;
70467;SDS011;57934;51.532;7.684;2023-06-19T10:47:58;2.13;;;1.80;;
70467;SDS011;57934;51.532;7.684;2023-06-19T10:50:26;2.50;;;2.05;;
70467;SDS011;57934;51.532;7.684;2023-06-19T10:52:53;4.93;;;2.10;;
70467;SDS011;57934;51.532;7.684;2023-06-19T10:55:20;3.53;;;2.10;;
70467;SDS011;57934;51.532;7.684;2023-06-19T10:57:47;3.47;;;2.25;;
70467;SDS011;57934;51.532;7.684;2023-06-19T11:00:23;2.95;;;2.38;;
70467;SDS011;57934;51.532;7.684;2023-06-19T11:02:49;3.67;;;2.40;;
70467;SDS011;57934;51.532;7.684;2023-06-19T11:05:14;5.32;;;2.22;;
70467;SDS011;57934;51.532;7.684;2023-06-19T11:07:40;5.90;;;2.50;;
70467;SDS011;57934;51.532;7.684;2023-06-19T11:10:06;3.38;;;2.30;;
70467;SDS011;57934;51.532;7.684;2023-06-19T11:12:32;3.80;;;2.53;;
70467;SDS011;57934;51.532;7.684;2023-06-19T11:15:02;3.28;;;2.22;;
70467;SDS011;57934;51.532;7.684;2023-06-19T11:17:27;2.90;;;2.50;;
70467;SDS011;57934;51.532;7.684;2023-06-19T11:19:56;5.70;;;2.90;;
70467;SDS011;57934;51.532;7.684;2023-06-19T11:22:22;4.00;;;2.28;;
70467;SDS011;57934;51.532;7.684;2023-06-19T11:24:47;4.80;;;2.55;;
70467;SDS011;57934;51.532;7.684;2023-06-19T11:27:19;5.10;;;2.97;;
70467;SDS011;57934;51.532;7.684;2023-06-19T11:29:54;4.35;;;3.20;;
70467;SDS011;57934;51.532;7.684;2023-06-19T11:32:21;5.97;;;2.80;;
70467;SDS011;57934;51.532;7.684;2023-06-19T11:34:50;6.80;;;3.13;;
70467;SDS011;57934;51.532;7.684;2023-06-19T11:37:18;3.30;;;3.10;;
70467;SDS011;57934;51.532;7.684;2023-06-19T11:39:45;5.30;;;3.28;;
70467;SDS011;57934;51.532;7.684;2023-06-19T11:42:11;3.28;;;2.90;;
70467;SDS011;57934;51.532;7.684;2023-06-19T11:47:19;4.28;;;2.92;;
70467;SDS011;57934;51.532;7.684;2023-06-19T11:49:47;3.97;;;3.13;;
70467;SDS011;57934;51.532;7.684;2023-06-19T11:52:13;3.78;;;3.13;;
70467;SDS011;57934;51.532;7.684;2023-06-19T11:54:38;6.45;;;3.15;;
70467;SDS011;57934;51.532;7.684;2023-06-19T11:57:04;5.78;;;3.38;;
70467;SDS011;57934;51.532;7.684;2023-06-19T11:59:30;4.75;;;3.50;;
70467;SDS011;57934;51.532;7.684;2023-06-19T12:01:56;4.20;;;3.70;;
70467;SDS011;57934;51.532;7.684;2023-06-19T12:04:24;7.13;;;3.20;;
70467;SDS011;57934;51.532;7.684;2023-06-19T12:06:49;3.95;;;3.50;;
70467;SDS011;57934;51.532;7.684;2023-06-19T12:09:15;4.32;;;3.20;;
70467;SDS011;57934;51.532;7.684;2023-06-19T12:11:41;5.97;;;3.35;;
70467;SDS011;57934;51.532;7.684;2023-06-19T12:14:07;5.95;;;3.60;;
70467;SDS011;57934;51.532;7.684;2023-06-19T12:16:33;5.55;;;3.70;;
70467;SDS011;57934;51.532;7.684;2023-06-19T12:18:58;4.82;;;3.70;;
70467;SDS011;57934;51.532;7.684;2023-06-19T12:21:24;5.90;;;3.45;;
70467;SDS011;57934;51.532;7.684;2023-06-19T12:23:50;4.47;;;3.40;;
70467;SDS011;57934;51.532;7.684;2023-06-19T12:26:16;4.20;;;3.10;;
70467;SDS011;57934;51.532;7.684;2023-06-19T12:28:42;6.70;;;3.50;;
70467;SDS011;57934;51.532;7.684;2023-06-19T12:31:07;5.07;;;3.55;;
70467;SDS011;57934;51.532;7.684;2023-06-19T12:33:33;7.63;;;3.42;;
70467;SDS011;57934;51.532;7.684;2023-06-19T12:35:59;3.75;;;3.45;;
70467;SDS011;57934;51.532;7.684;2023-06-19T12:38:26;4.47;;;3.97;;
70467;SDS011;57934;51.532;7.684;2023-06-19T12:40:52;5.75;;;3.65;;
70467;SDS011;57934;51.532;7.684;2023-06-19T12:43:17;5.85;;;3.88;;
70467;SDS011;57934;51.532;7.684;2023-06-19T12:45:43;5.30;;;3.70;;
70467;SDS011;57934;51.532;7.684;2023-06-19T12:48:10;5.72;;;3.90;;
70467;SDS011;57934;51.532;7.684;2023-06-19T12:50:36;6.57;;;3.75;;
70467;SDS011;57934;51.532;7.684;2023-06-19T12:53:02;7.45;;;3.80;;
70467;SDS011;57934;51.532;7.684;2023-06-19T12:55:28;6.15;;;4.10;;
70467;SDS011;57934;51.532;7.684;2023-06-19T12:57:53;5.20;;;4.13;;
70467;SDS011;57934;51.532;7.684;2023-06-19T13:00:19;4.18;;;3.70;;
70467;SDS011;57934;51.532;7.684;2023-06-19T13:02:45;7.50;;;3.70;;
70467;SDS011;57934;51.532;7.684;2023-06-19T13:05:12;7.13;;;3.88;;
70467;SDS011;57934;51.532;7.684;2023-06-19T13:07:38;5.68;;;3.75;;
70467;SDS011;57934;51.532;7.684;2023-06-19T13:10:04;6.63;;;4.05;;
70467;SDS011;57934;51.532;7.684;2023-06-19T13:12:31;8.32;;;3.90;;
70467;SDS011;57934;51.532;7.684;2023-06-19T13:14:57;4.47;;;4.18;;
70467;SDS011;57934;51.532;7.684;2023-06-19T13:17:23;5.22;;;3.70;;
70467;SDS011;57934;51.532;7.684;2023-06-19T13:19:49;5.72;;;3.97;;
70467;SDS011;57934;51.532;7.684;2023-06-19T13:22:16;4.75;;;3.58;;
70467;SDS011;57934;51.532;7.684;2023-06-19T13:24:42;4.70;;;4.03;;
70467;SDS011;57934;51.532;7.684;2023-06-19T13:27:07;5.72;;;3.72;;
70467;SDS011;57934;51.532;7.684;2023-06-19T13:29:33;8.63;;;3.78;;
70467;SDS011;57934;51.532;7.684;2023-06-19T13:31:59;7.60;;;3.72;;
70467;SDS011;57934;51.532;7.684;2023-06-19T13:34:25;7.60;;;4.32;;
70467;SDS011;57934;51.532;7.684;2023-06-19T13:36:51;4.25;;;3.85;;
70467;SDS011;57934;51.532;7.684;2023-06-19T13:39:17;5.13;;;4.25;;
70467;SDS011;57934;51.532;7.684;2023-06-19T13:41:45;5.40;;;3.90;;
70467;SDS011;57934;51.532;7.684;2023-06-19T13:44:11;4.57;;;3.85;;
70467;SDS011;57934;51.532;7.684;2023-06-19T13:46:38;4.43;;;4.03;;
70467;SDS011;57934;51.532;7.684;2023-06-19T13:49:04;3.45;;;3.17;;
70467;SDS011;57934;51.532;7.684;2023-06-19T13:51:29;7.28;;;4.22;;
70467;SDS011;57934;51.532;7.684;2023-06-19T13:53:55;3.67;;;3.38;;
70467;SDS011;57934;51.532;7.684;2023-06-19T13:56:21;5.40;;;3.70;;
70467;SDS011;57934;51.532;7.684;2023-06-19T13:58:48;5.93;;;3.80;;
70467;SDS011;57934;51.532;7.684;2023-06-19T14:01:15;5.72;;;3.50;;
70467;SDS011;57934;51.532;7.684;2023-06-19T14:03:42;4.13;;;3.72;;
70467;SDS011;57934;51.532;7.684;2023-06-19T14:06:09;5.22;;;3.70;;
70467;SDS011;57934;51.532;7.684;2023-06-19T14:08:35;5.40;;;4.32;;
70467;SDS011;57934;51.532;7.684;2023-06-19T14:11:01;7.43;;;4.00;;
70467;SDS011;57934;51.532;7.684;2023-06-19T14:13:27;4.68;;;4.20;;
70467;SDS011;57934;51.532;7.684;2023-06-19T14:15:53;4.57;;;4.10;;
70467;SDS011;57934;51.532;7.684;2023-06-19T14:18:20;6.07;;;3.95;;
70467;SDS011;57934;51.532;7.684;2023-06-19T14:20:45;6.50;;;4.20;;
70467;SDS011;57934;51.532;7.684;2023-06-19T14:23:11;7.32;;;4.07;;
70467;SDS011;57934;51.532;7.684;2023-06-19T14:25:37;4.32;;;3.70;;
70467;SDS011;57934;51.532;7.684;2023-06-19T14:28:03;6.15;;;3.45;;
70467;SDS011;57934;51.532;7.684;2023-06-19T14:30:30;6.15;;;4.10;;
70467;SDS011;57934;51.532;7.684;2023-06-19T14:32:56;4.68;;;4.25;;
70467;SDS011;57934;51.532;7.684;2023-06-19T14:35:22;4.82;;;4.32;;
70467;SDS011;57934;51.532;7.684;2023-06-19T14:37:48;4.60;;;4.03;;
70467;SDS011;57934;51.532;7.684;2023-06-19T14:40:15;7.18;;;4.07;;
70467;SDS011;57934;51.532;7.684;2023-06-19T14:42:41;6.45;;;4.20;;
70467;SDS011;57934;51.532;7.684;2023-06-19T14:45:07;5.65;;;4.20;;
70467;SDS011;57934;51.532;7.684;2023-06-19T14:47:33;5.00;;;3.95;;
70467;SDS011;57934;51.532;7.684;2023-06-19T14:50:00;5.07;;;4.18;;
70467;SDS011;57934;51.532;7.684;2023-06-19T14:52:26;5.22;;;4.00;;